createdAt,value
2023-12-11T00:00:02.376Z,84.20
2023-12-11T00:02:29.276Z,83.90
2023-12-11T00:04:56.206Z,84.00
2023-12-11T00:07:23.101Z,83.90
2023-12-11T00:09:50.188Z,84.10
2023-12-11T00:12:17.431Z,83.60
2023-12-11T00:14:44.309Z,83.80
2023-12-11T00:17:11.233Z,83.80
2023-12-11T00:19:38.159Z,83.90
2023-12-11T00:22:05.342Z,83.90
2023-12-11T00:24:32.385Z,83.70
2023-12-11T00:26:59.304Z,84.00
2023-12-11T00:29:26.208Z,83.90
2023-12-11T00:31:53.048Z,83.60
2023-12-11T00:34:20.103Z,83.90
2023-12-11T00:36:47.500Z,84.30
2023-12-11T00:39:17.170Z,83.60
2023-12-11T00:41:45.442Z,83.80
2023-12-11T00:44:12.514Z,84.00
2023-12-11T00:46:39.356Z,83.80
2023-12-11T00:49:06.234Z,83.90
2023-12-11T00:51:33.284Z,83.80
2023-12-11T00:54:00.455Z,84.10
2023-12-11T00:56:27.644Z,84.20
2023-12-11T00:58:54.471Z,84.20
2023-12-11T01:01:21.502Z,83.90
2023-12-11T01:03:48.834Z,83.80
2023-12-11T01:06:15.861Z,83.80
2023-12-11T01:08:42.755Z,83.90
2023-12-11T01:11:10.046Z,84.30
2023-12-11T01:13:37.813Z,84.30
2023-12-11T01:16:05.216Z,84.10
2023-12-11T01:18:32.326Z,84.10
2023-12-11T01:20:59.363Z,84.00
2023-12-11T01:23:26.697Z,84.20
2023-12-11T01:25:53.616Z,83.90
2023-12-11T01:28:20.599Z,84.00
2023-12-11T01:30:47.603Z,83.60
2023-12-11T01:33:14.661Z,83.70
2023-12-11T01:35:41.604Z,83.70
2023-12-11T01:38:08.591Z,83.60
2023-12-11T01:40:35.480Z,83.60
2023-12-11T01:43:20.089Z,83.60
2023-12-11T01:46:19.322Z,83.60
2023-12-11T01:48:47.154Z,83.50
2023-12-11T01:51:16.045Z,83.60
2023-12-11T01:53:43.124Z,83.90
2023-12-11T01:56:10.707Z,84.00
2023-12-11T01:58:38.357Z,83.90
2023-12-11T02:01:06.647Z,84.00
2023-12-11T02:03:33.721Z,84.00
2023-12-11T02:06:01.515Z,84.00
2023-12-11T02:08:29.585Z,84.20
2023-12-11T02:10:56.916Z,84.20
2023-12-11T02:13:23.767Z,84.10
2023-12-11T02:15:52.061Z,84.30
2023-12-11T02:18:19.423Z,84.00
2023-12-11T02:20:46.678Z,84.00
2023-12-11T02:23:32.675Z,84.10
2023-12-11T02:26:14.559Z,83.70
2023-12-11T02:28:42.014Z,83.20
2023-12-11T02:31:09.226Z,83.50
2023-12-11T02:33:36.631Z,83.60
2023-12-11T02:36:04.012Z,83.50
2023-12-11T02:38:30.995Z,83.50
2023-12-11T02:40:57.920Z,83.50
2023-12-11T02:43:24.984Z,83.30
2023-12-11T02:45:51.957Z,83.40
2023-12-11T02:48:19.666Z,83.40
2023-12-11T02:50:46.714Z,83.20
2023-12-11T02:53:13.673Z,83.30
2023-12-11T02:55:40.677Z,83.30
2023-12-11T02:58:07.753Z,83.50
2023-12-11T03:00:35.061Z,83.50
2023-12-11T03:03:02.030Z,83.60
2023-12-11T03:05:28.889Z,83.70
2023-12-11T03:07:55.792Z,83.80
2023-12-11T03:10:23.046Z,83.50
2023-12-11T03:12:49.990Z,83.60
2023-12-11T03:15:16.981Z,83.70
2023-12-11T03:17:43.982Z,83.80
2023-12-11T03:20:12.923Z,83.30
2023-12-11T03:22:40.524Z,83.50
2023-12-11T03:25:07.779Z,83.10
2023-12-11T03:27:34.927Z,83.20
2023-12-11T03:30:02.133Z,83.40
2023-12-11T03:32:29.158Z,83.30
2023-12-11T03:34:56.172Z,83.70
2023-12-11T03:37:23.181Z,83.40
2023-12-11T03:39:50.180Z,83.60
2023-12-11T03:42:17.120Z,83.30
2023-12-11T03:44:44.107Z,83.30
2023-12-11T03:47:11.119Z,83.40
2023-12-11T03:49:39.338Z,83.40
2023-12-11T03:52:06.638Z,83.70
2023-12-11T03:54:33.688Z,83.70
2023-12-11T03:57:00.733Z,83.70
2023-12-11T03:59:27.691Z,83.70
2023-12-11T04:01:54.748Z,83.60
2023-12-11T04:04:21.792Z,83.80
2023-12-11T04:06:48.792Z,84.00
2023-12-11T04:09:15.761Z,84.10
2023-12-11T04:11:44.461Z,84.00
2023-12-11T04:14:11.489Z,84.00
2023-12-11T04:16:42.798Z,84.00
2023-12-11T04:19:11.982Z,84.10
2023-12-11T04:21:39.739Z,84.10
2023-12-11T04:24:06.991Z,84.10
2023-12-11T04:26:33.980Z,84.30
2023-12-11T04:29:00.905Z,84.40
2023-12-11T04:31:27.995Z,84.30
2023-12-11T04:33:55.044Z,84.20
2023-12-11T04:36:22.084Z,84.50
2023-12-11T04:38:49.115Z,84.20
2023-12-11T04:41:16.142Z,84.20
2023-12-11T04:43:44.374Z,84.70
2023-12-11T04:46:11.349Z,84.30
2023-12-11T04:48:38.426Z,84.40
2023-12-11T04:51:05.653Z,84.30
2023-12-11T04:53:32.614Z,84.70
2023-12-11T04:55:59.718Z,84.60
2023-12-11T04:58:27.581Z,84.70
2023-12-11T05:00:54.708Z,84.50
2023-12-11T05:03:21.851Z,84.80
2023-12-11T05:05:48.862Z,84.80
2023-12-11T05:08:15.762Z,84.80
2023-12-11T05:10:43.180Z,84.70
2023-12-11T05:13:10.299Z,84.80
2023-12-11T05:15:37.309Z,84.70
2023-12-11T05:18:04.838Z,84.70
2023-12-11T05:20:31.856Z,85.00
2023-12-11T05:22:58.777Z,84.60
2023-12-11T05:25:25.771Z,85.00
2023-12-11T05:27:52.697Z,85.00
2023-12-11T05:30:22.064Z,84.70
2023-12-11T05:32:51.475Z,84.60
2023-12-11T05:35:18.643Z,84.80
2023-12-11T05:37:45.702Z,84.70
2023-12-11T05:40:22.177Z,84.50
2023-12-11T05:42:51.781Z,84.70
2023-12-11T05:45:19.211Z,84.40
2023-12-11T05:47:46.339Z,84.20
2023-12-11T05:50:14.854Z,84.10
2023-12-11T05:52:42.025Z,84.20
2023-12-11T05:55:09.192Z,84.00
2023-12-11T05:57:36.121Z,84.20
2023-12-11T06:00:04.667Z,84.10
2023-12-11T06:02:32.006Z,84.30
2023-12-11T06:04:59.162Z,84.40
2023-12-11T06:07:26.116Z,84.40
2023-12-11T06:09:53.095Z,84.40
2023-12-11T06:12:20.109Z,84.50
2023-12-11T06:14:49.338Z,84.50
2023-12-11T06:17:16.953Z,84.30
2023-12-11T06:19:45.379Z,84.70
2023-12-11T06:22:12.917Z,84.50
2023-12-11T06:24:41.380Z,84.60
2023-12-11T06:27:09.058Z,84.40
2023-12-11T06:29:37.241Z,84.70
2023-12-11T06:32:04.565Z,84.50
2023-12-11T06:34:32.000Z,84.70
2023-12-11T06:36:59.296Z,84.70
2023-12-11T06:39:28.222Z,84.70
2023-12-11T06:41:55.477Z,84.70
2023-12-11T06:44:23.773Z,84.60
2023-12-11T06:46:50.773Z,84.40
2023-12-11T06:49:17.901Z,84.50
2023-12-11T06:51:45.043Z,84.60
2023-12-11T06:54:12.663Z,84.90
2023-12-11T06:56:39.919Z,84.60
2023-12-11T06:59:06.904Z,84.60
2023-12-11T07:01:35.230Z,84.70
2023-12-11T07:04:03.120Z,84.40
2023-12-11T07:06:30.493Z,84.70
2023-12-11T07:08:58.129Z,84.90
2023-12-11T07:11:28.578Z,84.90
2023-12-11T07:13:55.744Z,84.70
2023-12-11T07:16:24.799Z,85.00
2023-12-11T07:18:52.710Z,84.80
2023-12-11T07:21:19.930Z,84.60
2023-12-11T07:23:49.666Z,84.90
2023-12-11T07:26:16.938Z,84.80
2023-12-11T07:28:43.909Z,84.90
2023-12-11T07:31:10.847Z,84.90
2023-12-11T07:33:37.876Z,85.00
2023-12-11T07:36:06.101Z,84.90
2023-12-11T07:38:33.316Z,84.70
2023-12-11T07:41:00.383Z,84.80
2023-12-11T07:43:27.429Z,84.70
2023-12-11T07:45:55.025Z,84.80
2023-12-11T07:48:22.231Z,84.70
2023-12-11T07:50:49.308Z,84.90
2023-12-11T07:53:16.251Z,84.70
2023-12-11T07:55:43.267Z,84.90
2023-12-11T07:58:12.089Z,84.80
2023-12-11T08:00:39.177Z,84.90
2023-12-11T08:03:07.425Z,84.90
2023-12-11T08:05:34.783Z,84.80
2023-12-11T08:08:02.810Z,85.20
2023-12-11T08:10:30.078Z,85.30
2023-12-11T08:12:57.226Z,85.10
2023-12-11T08:15:24.234Z,85.40
2023-12-11T08:17:51.234Z,85.00
2023-12-11T08:20:19.717Z,85.10
2023-12-11T08:22:47.114Z,85.00
2023-12-11T08:25:15.021Z,85.10
2023-12-11T08:27:43.650Z,85.20
2023-12-11T08:30:11.959Z,85.00
2023-12-11T08:32:40.727Z,85.20
2023-12-11T08:35:09.811Z,85.20
2023-12-11T08:37:37.760Z,85.20
2023-12-11T08:40:06.814Z,85.20
2023-12-11T08:42:39.179Z,85.10
2023-12-11T08:45:09.012Z,85.20
2023-12-11T08:47:39.192Z,85.10
2023-12-11T08:50:07.979Z,85.20
2023-12-11T08:52:35.444Z,84.70
2023-12-11T08:55:02.553Z,84.70
2023-12-11T08:57:30.419Z,84.70
2023-12-11T08:59:58.968Z,84.80
2023-12-11T09:02:26.326Z,85.10
2023-12-11T09:04:53.328Z,84.90
2023-12-11T09:07:20.462Z,84.50
2023-12-11T09:09:47.678Z,84.40
2023-12-11T09:12:23.464Z,84.60
2023-12-11T09:14:58.229Z,83.00
2023-12-11T09:17:25.387Z,84.50
2023-12-11T09:19:55.710Z,83.20
2023-12-11T09:22:24.499Z,83.30
2023-12-11T09:24:52.118Z,83.50
2023-12-11T09:27:19.197Z,83.50
2023-12-11T09:29:49.949Z,83.10
2023-12-11T09:32:17.738Z,83.50
2023-12-11T09:34:45.018Z,83.30
2023-12-11T09:37:12.275Z,83.20
2023-12-11T09:39:40.617Z,83.30
2023-12-11T09:42:27.923Z,83.40
2023-12-11T09:44:55.671Z,82.80
2023-12-11T09:47:30.416Z,83.10
2023-12-11T09:49:57.831Z,83.10
2023-12-11T09:52:25.718Z,83.00
2023-12-11T09:54:52.677Z,83.10
2023-12-11T09:57:20.589Z,83.20
2023-12-11T09:59:51.436Z,83.20
2023-12-11T10:02:19.202Z,83.10
2023-12-11T10:05:11.741Z,83.00
2023-12-11T10:07:42.837Z,83.10
2023-12-11T10:10:31.435Z,83.30
2023-12-11T10:12:59.453Z,82.90
2023-12-11T10:15:31.788Z,83.00
2023-12-11T10:18:19.748Z,83.00
2023-12-11T10:20:55.130Z,83.00
2023-12-11T10:23:23.673Z,83.50
2023-12-11T10:25:53.479Z,83.10
2023-12-11T10:28:25.292Z,83.50
2023-12-11T10:30:57.357Z,83.30
2023-12-11T10:33:27.271Z,83.10
2023-12-11T10:36:17.326Z,83.10
2023-12-11T10:38:44.547Z,82.80
2023-12-11T10:41:26.520Z,82.40
2023-12-11T10:44:07.897Z,82.50
2023-12-11T10:46:41.249Z,82.50
2023-12-11T10:49:08.529Z,82.50
2023-12-11T10:51:36.569Z,82.50
2023-12-11T10:54:03.513Z,82.60
2023-12-11T10:56:30.990Z,82.80
2023-12-11T10:58:59.367Z,82.10
2023-12-11T11:01:27.189Z,82.50
2023-12-11T11:03:54.655Z,82.30
2023-12-11T11:06:23.750Z,82.80
2023-12-11T11:09:01.452Z,82.70
2023-12-11T11:11:33.979Z,82.80
2023-12-11T11:14:19.208Z,82.50
2023-12-11T11:16:52.892Z,82.80
2023-12-11T11:19:19.877Z,82.80
2023-12-11T11:22:31.226Z,82.60
2023-12-11T11:25:31.068Z,82.50
2023-12-11T11:27:58.618Z,82.50
2023-12-11T11:30:45.284Z,83.00
2023-12-11T11:33:12.542Z,82.50
2023-12-11T11:35:53.718Z,83.40
2023-12-11T11:38:22.418Z,83.30
2023-12-11T11:40:51.852Z,83.40
2023-12-11T11:43:19.469Z,83.50
2023-12-11T11:45:46.462Z,83.70
2023-12-11T11:48:13.701Z,83.60
2023-12-11T11:50:55.022Z,83.90
2023-12-11T11:53:22.776Z,84.00
2023-12-11T11:55:49.870Z,84.30
2023-12-11T11:58:17.396Z,84.20
2023-12-11T12:00:44.611Z,84.20
2023-12-11T12:03:12.256Z,84.40
2023-12-11T12:05:58.658Z,84.30
2023-12-11T12:08:25.933Z,84.30
2023-12-11T12:10:57.738Z,84.70
2023-12-11T12:13:24.812Z,84.30
2023-12-11T12:15:53.311Z,84.80
2023-12-11T12:18:20.506Z,84.70
2023-12-11T12:21:07.433Z,84.90
2023-12-11T12:23:34.418Z,84.70
2023-12-11T12:26:04.026Z,84.70
2023-12-11T12:28:31.159Z,84.90
2023-12-11T12:30:58.317Z,85.00
2023-12-11T12:33:26.067Z,85.00
2023-12-11T12:35:53.448Z,85.20
2023-12-11T12:38:20.557Z,85.10
2023-12-11T12:40:47.574Z,85.10
2023-12-11T12:43:15.142Z,85.10
2023-12-11T12:45:43.141Z,85.60
2023-12-11T12:48:10.984Z,85.30
2023-12-11T12:50:38.219Z,85.60
2023-12-11T12:53:11.612Z,85.50
2023-12-11T12:55:40.525Z,85.40
2023-12-11T12:58:08.936Z,85.30
2023-12-11T13:00:36.963Z,85.50
2023-12-11T13:03:05.145Z,85.50
2023-12-11T13:05:43.774Z,85.60
2023-12-11T13:08:11.188Z,85.70
2023-12-11T13:10:38.678Z,85.40
2023-12-11T13:13:12.388Z,85.30
2023-12-11T13:15:40.596Z,85.70
2023-12-11T13:18:07.735Z,85.20
2023-12-11T13:20:35.134Z,85.60
2023-12-11T13:23:02.231Z,85.40
2023-12-11T13:25:29.337Z,86.00
2023-12-11T13:27:56.245Z,85.50
2023-12-11T13:30:23.682Z,85.60
2023-12-11T13:32:51.813Z,85.70
2023-12-11T13:35:19.758Z,85.70
2023-12-11T13:37:46.733Z,85.60
2023-12-11T13:40:14.122Z,85.70
2023-12-11T13:42:41.126Z,85.80
2023-12-11T13:45:08.433Z,85.70
2023-12-11T13:47:35.374Z,85.50
2023-12-11T13:50:02.439Z,85.70
2023-12-11T13:52:29.695Z,85.90
2023-12-11T13:54:56.652Z,85.90
2023-12-11T13:57:23.584Z,86.00
2023-12-11T13:59:50.718Z,85.80
2023-12-11T14:02:57.905Z,86.10
2023-12-11T14:05:07.146Z,86.10
2023-12-11T14:07:34.474Z,86.00
2023-12-11T14:10:01.473Z,86.20
2023-12-11T14:12:28.771Z,86.10
2023-12-11T14:14:55.613Z,86.00
2023-12-11T14:17:22.591Z,86.40
2023-12-11T14:19:50.476Z,86.30
2023-12-11T14:22:17.467Z,86.30
2023-12-11T14:24:45.518Z,86.40
2023-12-11T14:27:14.639Z,86.50
2023-12-11T14:29:42.241Z,86.40
2023-12-11T14:32:09.275Z,86.30
2023-12-11T14:37:10.708Z,86.70
2023-12-11T14:39:38.735Z,86.40
2023-12-11T14:42:06.595Z,86.60
2023-12-11T14:44:40.661Z,86.50
2023-12-11T14:47:07.790Z,86.50
2023-12-11T14:49:35.946Z,86.30
2023-12-11T14:52:03.528Z,86.60
2023-12-11T14:54:30.506Z,86.70
2023-12-11T14:56:57.978Z,86.80
2023-12-11T14:59:24.926Z,86.90
2023-12-11T15:01:52.019Z,86.60
2023-12-11T15:04:19.090Z,86.70
2023-12-11T15:06:46.937Z,86.70
2023-12-11T15:09:16.262Z,86.80
2023-12-11T15:11:43.349Z,87.00
2023-12-11T15:14:12.807Z,86.90
2023-12-11T15:16:42.288Z,86.90
2023-12-11T15:19:10.745Z,86.90
2023-12-11T15:21:38.576Z,87.10
2023-12-11T15:24:06.887Z,87.20
2023-12-11T15:26:33.987Z,87.10
2023-12-11T15:29:04.903Z,87.00
2023-12-11T15:31:32.002Z,87.10
2023-12-11T15:33:59.187Z,87.40
2023-12-11T15:36:26.220Z,87.00
2023-12-11T15:38:53.299Z,87.10
2023-12-11T15:41:20.605Z,87.30
2023-12-11T15:43:47.583Z,87.40
2023-12-11T15:46:16.569Z,87.50
2023-12-11T15:48:48.041Z,87.20
2023-12-11T15:51:16.654Z,87.70
2023-12-11T15:53:45.783Z,87.20
2023-12-11T15:56:22.571Z,87.50
2023-12-11T15:58:49.562Z,87.30
2023-12-11T16:01:16.899Z,87.30
2023-12-11T16:03:44.122Z,87.30
2023-12-11T16:06:11.584Z,87.20
2023-12-11T16:08:38.583Z,87.40
2023-12-11T16:11:07.278Z,87.30
2023-12-11T16:13:34.237Z,87.50
2023-12-11T16:16:01.352Z,87.50
2023-12-11T16:18:28.430Z,87.60
2023-12-11T16:20:55.407Z,87.40
2023-12-11T16:23:22.366Z,87.20
2023-12-11T16:25:56.421Z,87.10
2023-12-11T16:28:29.913Z,87.50
2023-12-11T16:30:57.344Z,87.50
2023-12-11T16:33:25.252Z,87.60
2023-12-11T16:35:52.265Z,87.60
2023-12-11T16:38:19.314Z,87.60
2023-12-11T16:40:46.230Z,87.60
2023-12-11T16:43:13.227Z,87.50
2023-12-11T16:45:44.799Z,87.80
2023-12-11T16:48:13.342Z,87.60
2023-12-11T16:50:46.137Z,87.90
2023-12-11T16:53:13.305Z,87.90
2023-12-11T16:55:42.677Z,87.80
2023-12-11T16:58:10.659Z,88.10
2023-12-11T17:00:38.570Z,87.90
2023-12-11T17:03:06.614Z,87.80
2023-12-11T17:05:34.761Z,88.10
2023-12-11T17:08:05.713Z,88.20
2023-12-11T17:10:33.090Z,88.30
2023-12-11T17:13:00.919Z,88.30
2023-12-11T17:15:28.423Z,88.30
2023-12-11T17:17:55.510Z,88.30
2023-12-11T17:20:23.760Z,88.40
2023-12-11T17:22:50.724Z,88.50
2023-12-11T17:25:17.705Z,88.20
2023-12-11T17:27:44.696Z,88.40
2023-12-11T17:30:12.226Z,88.20
2023-12-11T17:32:40.529Z,88.00
2023-12-11T17:35:07.799Z,88.30
2023-12-11T17:37:34.815Z,88.10
2023-12-11T17:40:02.750Z,88.40
2023-12-11T17:42:31.775Z,88.10
2023-12-11T17:44:59.920Z,88.20
2023-12-11T17:47:27.660Z,88.20
2023-12-11T17:49:54.693Z,88.40
2023-12-11T17:52:22.347Z,88.30
2023-12-11T17:54:50.553Z,88.20
2023-12-11T17:57:17.865Z,88.10
2023-12-11T17:59:44.843Z,88.10
2023-12-11T18:02:11.787Z,88.30
2023-12-11T18:04:41.526Z,88.10
2023-12-11T18:07:08.487Z,88.30
2023-12-11T18:09:37.125Z,88.40
2023-12-11T18:12:05.422Z,88.20
2023-12-11T18:14:32.465Z,88.30
2023-12-11T18:16:59.371Z,88.50
2023-12-11T18:19:26.551Z,88.20
2023-12-11T18:21:53.550Z,88.50
2023-12-11T18:24:20.472Z,88.30
2023-12-11T18:26:48.754Z,88.50
2023-12-11T18:29:17.773Z,88.50
2023-12-11T18:31:45.011Z,88.70
2023-12-11T18:34:12.161Z,88.60
2023-12-11T18:36:40.859Z,88.70
2023-12-11T18:39:14.821Z,88.50
2023-12-11T18:41:41.806Z,88.50
2023-12-11T18:44:09.231Z,88.40
2023-12-11T18:46:36.166Z,88.30
2023-12-11T18:49:04.922Z,88.40
2023-12-11T18:51:32.652Z,88.60
2023-12-11T18:53:59.685Z,88.60
2023-12-11T18:56:26.729Z,88.50
2023-12-11T18:58:54.386Z,88.50
2023-12-11T19:01:21.875Z,88.40
2023-12-11T19:03:49.185Z,88.20
2023-12-11T19:06:16.229Z,88.40
2023-12-11T19:08:43.105Z,88.60
2023-12-11T19:11:13.528Z,88.60
2023-12-11T19:13:40.674Z,88.40
2023-12-11T19:16:09.165Z,88.40
2023-12-11T19:18:36.985Z,88.40
2023-12-11T19:21:05.215Z,88.30
2023-12-11T19:23:32.126Z,88.00
2023-12-11T19:25:59.512Z,88.40
2023-12-11T19:28:26.569Z,88.30
2023-12-11T19:30:53.932Z,88.30
2023-12-11T19:33:22.076Z,88.10
2023-12-11T19:35:49.439Z,88.40
2023-12-11T19:38:18.258Z,88.40
2023-12-11T19:40:45.436Z,88.20
2023-12-11T19:43:13.656Z,88.50
2023-12-11T19:45:40.684Z,88.20
2023-12-11T19:48:07.744Z,88.20
2023-12-11T19:50:34.853Z,88.10
2023-12-11T19:53:01.810Z,88.00
2023-12-11T19:55:28.793Z,88.20
2023-12-11T19:57:55.756Z,88.10
2023-12-11T20:00:22.740Z,88.00
2023-12-11T20:02:49.807Z,87.60
2023-12-11T20:05:16.909Z,87.90
2023-12-11T20:07:43.860Z,87.70
2023-12-11T20:10:11.963Z,87.60
2023-12-11T20:12:38.956Z,87.70
2023-12-11T20:15:06.554Z,87.90
2023-12-11T20:17:35.059Z,87.90
2023-12-11T20:20:06.161Z,87.80
2023-12-11T20:22:33.831Z,88.00
2023-12-11T20:25:00.994Z,88.00
2023-12-11T20:27:28.582Z,87.70
2023-12-11T20:29:55.620Z,87.90
2023-12-11T20:32:22.607Z,88.00
2023-12-11T20:34:49.563Z,88.10
2023-12-11T20:37:16.639Z,88.10
2023-12-11T20:39:44.103Z,88.20
2023-12-11T20:42:11.157Z,88.40
2023-12-11T20:44:38.084Z,88.30
2023-12-11T20:47:05.185Z,88.40
2023-12-11T20:49:35.124Z,88.40
2023-12-11T20:52:02.496Z,88.00
2023-12-11T20:54:29.471Z,88.30
2023-12-11T20:56:56.368Z,88.30
2023-12-11T20:59:23.220Z,88.20
2023-12-11T21:01:50.228Z,88.50
2023-12-11T21:04:17.333Z,88.10
2023-12-11T21:06:44.388Z,88.40
2023-12-11T21:09:13.602Z,88.40
2023-12-11T21:11:40.502Z,88.30
2023-12-11T21:14:07.352Z,88.20
2023-12-11T21:16:37.613Z,88.20
2023-12-11T21:19:04.813Z,88.30
2023-12-11T21:21:32.032Z,88.10
2023-12-11T21:23:58.997Z,88.40
2023-12-11T21:26:26.785Z,88.20
2023-12-11T21:28:54.603Z,88.40
2023-12-11T21:31:26.770Z,88.50
2023-12-11T21:33:55.119Z,88.30
2023-12-11T21:36:23.549Z,88.50
2023-12-11T21:38:51.307Z,88.30
2023-12-11T21:41:18.367Z,88.20
2023-12-11T21:43:48.505Z,88.30
2023-12-11T21:46:16.392Z,88.20
2023-12-11T21:48:44.614Z,87.90
2023-12-11T21:51:16.675Z,88.30
2023-12-11T21:53:44.562Z,88.30
2023-12-11T21:56:11.666Z,88.20
2023-12-11T21:58:38.679Z,88.30
2023-12-11T22:01:06.244Z,88.30
2023-12-11T22:03:33.356Z,88.50
2023-12-11T22:06:01.891Z,88.60
2023-12-11T22:08:28.824Z,88.70
2023-12-11T22:10:55.702Z,88.70
2023-12-11T22:13:23.345Z,88.60
2023-12-11T22:15:50.360Z,88.40
2023-12-11T22:18:17.622Z,88.30
2023-12-11T22:20:44.653Z,88.50
2023-12-11T22:23:12.199Z,88.50
2023-12-11T22:25:39.148Z,88.60
2023-12-11T22:28:06.140Z,88.30
2023-12-11T22:30:33.080Z,88.50
2023-12-11T22:33:00.081Z,88.50
2023-12-11T22:35:27.037Z,88.60
2023-12-11T22:37:54.450Z,88.60
2023-12-11T22:40:22.041Z,88.70
2023-12-11T22:42:49.196Z,88.90
2023-12-11T22:45:17.839Z,88.90
2023-12-11T22:47:45.078Z,88.60
2023-12-11T22:50:12.236Z,89.00
2023-12-11T22:52:39.246Z,88.80
2023-12-11T22:55:06.625Z,88.90
2023-12-11T22:57:34.022Z,89.00
2023-12-11T23:00:01.125Z,88.60
2023-12-11T23:02:28.088Z,89.10
2023-12-11T23:04:56.827Z,88.80
2023-12-11T23:07:24.288Z,89.10
2023-12-11T23:09:51.309Z,89.00
2023-12-11T23:12:18.498Z,88.90
2023-12-11T23:14:45.701Z,89.20
2023-12-11T23:17:12.746Z,89.00
2023-12-11T23:19:39.833Z,89.10
2023-12-11T23:22:06.857Z,89.10
2023-12-11T23:24:33.859Z,88.90
2023-12-11T23:27:00.967Z,88.90
2023-12-11T23:29:28.110Z,89.10
2023-12-11T23:31:55.080Z,88.80
2023-12-11T23:34:22.043Z,89.10
2023-12-11T23:36:49.069Z,89.00
2023-12-11T23:39:16.015Z,88.80
2023-12-11T23:41:44.774Z,88.90
2023-12-11T23:44:11.819Z,88.90
2023-12-11T23:46:38.998Z,89.00
2023-12-11T23:49:06.244Z,89.00
2023-12-11T23:51:33.231Z,89.10
2023-12-11T23:54:00.775Z,89.10
2023-12-11T23:56:27.648Z,89.50
2023-12-11T23:58:54.717Z,89.40
